Time;durP1;ratioP1;P1;durP2;ratioP2;P2;SDS_P1;SDS_P2;PMS_P1;PMS_P2;Temp;Humidity;BMP_temperature;BMP_pressure;BME280_temperature;BME280_humidity;BME280_pressure;Samples;Min_cycle;Max_cycle;Signal;HPM_P1;HPM_P2
2021/08/19 00:01:28;;;;;;;3.13;1.10;;;15.40;99.90;;;;;;5078863;28;20024;-77
2021/08/19 00:03:54;;;;;;;3.38;1.40;;;15.30;99.90;;;;;;5078501;28;20069;-75
2021/08/19 00:06:19;;;;;;;4.07;1.38;;;15.30;99.90;;;;;;5096544;28;20423;-76
2021/08/19 00:08:45;;;;;;;4.05;1.40;;;15.20;99.90;;;;;;5078316;28;20017;-77
2021/08/19 00:11:12;;;;;;;4.28;1.70;;;15.20;99.90;;;;;;5078609;28;20031;-76
2021/08/19 00:13:39;;;;;;;4.15;1.80;;;15.20;99.90;;;;;;5096772;28;20027;-77
2021/08/19 00:16:07;;;;;;;5.18;1.40;;;15.30;99.90;;;;;;5096729;28;20078;-79
2021/08/19 00:18:34;;;;;;;4.28;1.80;;;15.30;99.90;;;;;;5078039;28;20030;-79
2021/08/19 00:20:59;;;;;;;8.27;1.90;;;15.30;99.90;;;;;;5096222;28;20018;-76
2021/08/19 00:23:25;;;;;;;3.97;1.42;;;15.30;99.90;;;;;;5078011;28;20107;-78
2021/08/19 00:25:51;;;;;;;5.00;1.35;;;15.20;99.90;;;;;;5077937;28;20024;-79
2021/08/19 00:28:16;;;;;;;5.10;2.17;;;15.20;99.90;;;;;;5077860;28;20020;-76
2021/08/19 00:30:42;;;;;;;4.03;1.58;;;15.70;99.90;;;;;;5077916;28;20020;-76
2021/08/19 00:33:07;;;;;;;4.95;1.65;;;15.10;99.90;;;;;;5077916;28;20035;-78
2021/08/19 00:35:33;;;;;;;4.97;2.30;;;15.00;99.90;;;;;;5095807;28;20031;-77
2021/08/19 00:37:59;;;;;;;5.80;2.70;;;15.00;99.90;;;;;;5077847;28;20032;-77
2021/08/19 00:40:24;;;;;;;6.75;2.50;;;15.10;99.90;;;;;;5077709;28;20035;-77
2021/08/19 00:42:51;;;;;;;5.82;1.95;;;15.10;99.90;;;;;;5095826;28;20024;-77
2021/08/19 00:45:18;;;;;;;4.80;2.05;;;15.10;99.90;;;;;;5095754;28;20482;-77
2021/08/19 00:47:44;;;;;;;6.43;2.55;;;15.20;99.90;;;;;;5077630;28;20103;-77
2021/08/19 00:50:10;;;;;;;6.90;2.60;;;15.30;99.90;;;;;;5095704;28;20105;-76
2021/08/19 00:52:37;;;;;;;4.95;2.22;;;15.40;99.90;;;;;;5095542;28;20496;-77
2021/08/19 00:55:04;;;;;;;5.80;2.17;;;15.40;99.90;;;;;;5094968;28;20050;-76
2021/08/19 00:57:29;;;;;;;6.75;2.47;;;15.50;99.90;;;;;;5077341;28;20494;-76
2021/08/19 00:59:56;;;;;;;4.88;2.75;;;15.60;99.90;;;;;;5095991;28;20052;-77
2021/08/19 01:02:21;;;;;;;6.55;3.00;;;15.60;99.90;;;;;;5095442;28;20020;-77
2021/08/19 01:04:48;;;;;;;6.15;3.00;;;15.60;99.90;;;;;;5095350;28;20073;-76
2021/08/19 01:07:22;;;;;;;7.13;2.30;;;15.60;99.90;;;;;;5077033;28;20020;-76
2021/08/19 01:09:48;;;;;;;5.90;2.83;;;15.60;99.90;;;;;;5095046;28;20028;-75
2021/08/19 01:12:14;;;;;;;7.85;3.22;;;15.70;99.90;;;;;;5095066;28;20032;-75
2021/08/19 01:14:45;;;;;;;5.25;2.53;;;15.70;99.90;;;;;;5076912;28;20031;-76
2021/08/19 01:17:17;;;;;;;4.65;2.75;;;15.70;99.90;;;;;;5076745;28;20024;-76
2021/08/19 01:19:46;;;;;;;9.73;3.00;;;15.80;99.90;;;;;;5076864;28;20046;-76
2021/08/19 01:22:11;;;;;;;;;;;15.80;99.90;;;;;;5095211;28;20431;-76
2021/08/19 01:24:38;;;;;;;7.90;3.25;;;15.80;99.90;;;;;;5095237;28;19903;-78
2021/08/19 01:27:03;;;;;;;5.53;2.40;;;15.90;99.90;;;;;;5095678;28;20028;-78
2021/08/19 01:29:29;;;;;;;3.80;2.75;;;15.90;99.90;;;;;;5095199;28;20028;-76
2021/08/19 01:32:00;;;;;;;10.55;3.70;;;16.00;99.90;;;;;;5076776;28;20036;-77
2021/08/19 01:34:27;;;;;;;5.85;3.20;;;15.90;99.90;;;;;;5095372;28;20626;-78
2021/08/19 01:36:52;;;;;;;13.13;3.53;;;15.90;99.90;;;;;;5095522;28;20432;-75
2021/08/19 01:39:21;;;;;;;12.65;4.32;;;16.00;99.90;;;;;;5077848;28;20020;-75
2021/08/19 01:41:47;;;;;;;9.75;3.92;;;16.00;99.90;;;;;;5076326;28;20020;-75
2021/08/19 01:44:13;;;;;;;8.90;3.78;;;16.00;99.90;;;;;;5094833;28;20046;-75
2021/08/19 01:46:38;;;;;;;8.65;4.07;;;16.10;99.90;;;;;;5094822;28;20374;-78
2021/08/19 01:49:04;;;;;;;8.65;3.70;;;16.10;99.90;;;;;;5094423;28;20054;-78
2021/08/19 01:51:31;;;;;;;9.73;4.82;;;16.10;99.90;;;;;;5076268;28;20545;-79
2021/08/19 01:53:56;;;;;;;10.80;4.75;;;16.10;99.90;;;;;;5095051;28;20115;-78
2021/08/19 01:56:22;;;;;;;7.47;3.85;;;16.20;99.90;;;;;;5076713;28;20135;-78
2021/08/19 01:58:49;;;;;;;7.63;3.97;;;16.10;99.90;;;;;;5094770;28;20515;-78
2021/08/19 02:01:19;;;;;;;12.60;4.57;;;16.20;99.90;;;;;;5094854;28;20031;-78
2021/08/19 02:03:44;;;;;;;8.65;3.97;;;16.20;99.90;;;;;;5094664;28;20084;-79
2021/08/19 02:06:10;;;;;;;7.47;3.63;;;16.20;99.90;;;;;;5094108;28;20020;-77
2021/08/19 02:08:35;;;;;;;10.50;4.35;;;16.20;99.90;;;;;;5075918;28;20119;-76
2021/08/19 02:11:01;;;;;;;10.43;3.70;;;16.10;99.90;;;;;;5094333;28;20028;-76
2021/08/19 02:13:26;;;;;;;8.20;4.05;;;16.10;99.90;;;;;;5075930;28;20036;-78
2021/08/19 02:15:52;;;;;;;12.15;5.75;;;16.10;99.90;;;;;;5094292;28;20020;-78
2021/08/19 02:18:17;;;;;;;8.63;3.75;;;16.00;99.90;;;;;;5094341;28;20466;-78
2021/08/19 02:20:43;;;;;;;9.38;3.95;;;15.90;99.90;;;;;;5094633;28;20012;-77
2021/08/19 02:23:09;;;;;;;9.90;3.72;;;16.00;99.90;;;;;;5094011;28;20031;-77
2021/08/19 02:25:34;;;;;;;11.30;4.03;;;15.90;99.90;;;;;;5076049;28;20023;-76
2021/08/19 02:28:00;;;;;;;10.35;3.33;;;15.80;99.90;;;;;;5093999;28;20051;-76
2021/08/19 02:30:26;;;;;;;15.32;4.95;;;15.80;99.90;;;;;;5093741;28;20571;-77
2021/08/19 02:32:58;;;;;;;10.95;4.75;;;15.80;99.90;;;;;;5093762;28;20028;-76
2021/08/19 02:35:25;;;;;;;10.77;5.07;;;15.70;99.90;;;;;;5093843;28;20016;-77
2021/08/19 02:37:52;;;;;;;10.93;5.13;;;15.70;99.90;;;;;;5075700;28;20069;-77
2021/08/19 02:40:18;;;;;;;8.45;4.90;;;15.70;99.90;;;;;;5093514;28;20031;-75
2021/08/19 02:42:43;;;;;;;12.48;4.70;;;15.70;99.90;;;;;;5075185;28;20024;-75
2021/08/19 02:45:09;;;;;;;13.30;5.88;;;15.70;99.90;;;;;;5075738;28;20478;-76
2021/08/19 02:47:35;;;;;;;12.68;5.35;;;15.70;99.90;;;;;;5075685;28;20099;-75
2021/08/19 02:50:00;;;;;;;12.88;5.78;;;15.70;99.90;;;;;;5075481;28;20103;-75
2021/08/19 02:52:26;;;;;;;10.30;5.53;;;15.70;99.90;;;;;;5075449;28;20400;-76
2021/08/19 02:54:52;;;;;;;13.48;5.13;;;15.80;99.90;;;;;;5093401;28;20024;-76
2021/08/19 02:57:17;;;;;;;11.32;5.07;;;15.80;99.90;;;;;;5093202;28;20501;-75
2021/08/19 02:59:43;;;;;;;16.98;5.47;;;15.90;99.90;;;;;;5093553;28;20028;-77
2021/08/19 03:02:08;;;;;;;10.35;4.68;;;15.90;99.90;;;;;;5093424;28;20028;-76
2021/08/19 03:04:34;;;;;;;14.27;5.50;;;15.90;99.90;;;;;;5075308;28;20024;-76
2021/08/19 03:07:00;;;;;;;12.98;5.88;;;16.00;99.90;;;;;;5075573;28;20027;-77
2021/08/19 03:09:25;;;;;;;8.40;4.47;;;16.00;99.90;;;;;;5093301;28;20021;-75
2021/08/19 03:11:51;;;;;;;12.35;5.22;;;16.00;99.90;;;;;;5087078;22;20040;-75
2021/08/19 03:14:17;;;;;;;11.88;6.47;;;16.10;99.90;;;;;;5075407;28;20059;-77
2021/08/19 03:16:42;;;;;;;13.00;5.80;;;16.20;99.90;;;;;;5075456;28;20027;-78
2021/08/19 03:19:08;;;;;;;14.60;6.05;;;16.30;99.90;;;;;;5078310;28;20393;-78
2021/08/19 03:21:35;;;;;;;16.65;6.55;;;16.30;99.90;;;;;;5079165;28;20363;-75
2021/08/19 03:24:03;;;;;;;10.02;5.30;;;16.30;99.90;;;;;;5097311;28;20048;-76
2021/08/19 03:26:29;;;;;;;13.30;4.95;;;16.30;99.90;;;;;;5097448;28;20029;-77
2021/08/19 03:28:54;;;;;;;10.57;5.28;;;16.30;99.90;;;;;;5097664;28;20386;-78
2021/08/19 03:31:20;;;;;;;10.43;4.72;;;16.30;99.90;;;;;;5098074;28;20032;-79
2021/08/19 03:33:46;;;;;;;10.63;5.30;;;16.30;99.90;;;;;;5079390;28;20024;-79
2021/08/19 03:36:13;;;;;;;12.18;5.47;;;17.20;99.90;;;;;;5079564;28;20031;-78
2021/08/19 03:38:40;;;;;;;13.43;5.22;;;16.30;99.90;;;;;;5079204;28;20028;-78
2021/08/19 03:41:05;;;;;;;13.02;5.75;;;16.30;99.90;;;;;;5097924;28;20026;-78
2021/08/19 03:43:31;;;;;;;14.23;6.18;;;16.30;99.90;;;;;;5078862;28;20026;-76
2021/08/19 03:45:56;;;;;;;12.05;5.70;;;16.40;99.90;;;;;;5097310;28;20024;-75
2021/08/19 03:48:23;;;;;;;10.52;5.45;;;16.40;99.90;;;;;;5078489;28;20049;-77
2021/08/19 03:50:49;;;;;;;8.85;4.18;;;16.40;99.90;;;;;;5079069;28;20084;-78
2021/08/19 03:53:14;;;;;;;10.30;5.07;;;16.40;99.90;;;;;;5078898;28;20490;-78
2021/08/19 03:55:40;;;;;;;15.05;6.22;;;16.40;99.90;;;;;;5077891;28;20032;-76
2021/08/19 03:58:05;;;;;;;10.48;5.60;;;17.40;99.90;;;;;;5097452;28;20028;-79
2021/08/19 04:00:31;;;;;;;13.38;4.53;;;16.50;99.90;;;;;;5078335;28;20469;-75
2021/08/19 04:02:56;;;;;;;13.45;4.85;;;16.40;99.90;;;;;;5096756;28;20020;-79
2021/08/19 04:05:22;;;;;;;10.60;4.82;;;16.40;99.90;;;;;;5096374;28;20047;-76
2021/08/19 04:07:47;;;;;;;10.10;4.80;;;16.40;99.90;;;;;;5096195;28;20054;-79
2021/08/19 04:10:14;;;;;;;12.07;4.90;;;16.40;99.90;;;;;;5096685;28;20020;-79
2021/08/19 04:12:41;;;;;;;11.95;4.82;;;16.40;99.90;;;;;;5078267;28;20036;-77
2021/08/19 04:15:07;;;;;;;15.57;4.88;;;16.50;99.90;;;;;;5096275;28;20020;-77
2021/08/19 04:17:33;;;;;;;10.25;4.88;;;16.40;99.90;;;;;;5078102;28;20550;-76
2021/08/19 04:19:59;;;;;;;13.13;4.85;;;16.40;99.90;;;;;;5096055;28;20557;-77
2021/08/19 04:22:24;;;;;;;12.52;5.85;;;16.40;99.90;;;;;;5096238;28;20497;-77
2021/08/19 04:24:50;;;;;;;14.57;5.55;;;16.40;99.90;;;;;;5096117;28;20024;-77
2021/08/19 04:27:15;;;;;;;10.45;4.65;;;16.40;99.90;;;;;;5096261;28;20020;-77
2021/08/19 04:29:41;;;;;;;11.52;5.28;;;16.40;99.90;;;;;;5077837;28;20023;-77
2021/08/19 04:32:06;;;;;;;8.10;4.25;;;16.90;99.90;;;;;;5096301;28;20133;-77
2021/08/19 04:34:32;;;;;;;14.45;6.10;;;16.50;99.90;;;;;;5077745;28;20070;-77
2021/08/19 04:36:57;;;;;;;11.20;5.55;;;16.50;99.90;;;;;;5095764;28;20028;-77
2021/08/19 04:39:23;;;;;;;12.15;5.78;;;16.50;99.90;;;;;;5077675;28;20028;-77
2021/08/19 04:41:50;;;;;;;15.45;6.07;;;16.60;99.90;;;;;;5096014;28;20055;-77
2021/08/19 04:44:16;;;;;;;10.40;5.78;;;16.60;99.90;;;;;;5077883;28;20107;-77
2021/08/19 04:46:42;;;;;;;17.27;5.75;;;16.60;99.90;;;;;;5095854;28;20028;-77
2021/08/19 04:49:08;;;;;;;12.88;5.47;;;16.60;99.90;;;;;;5096209;28;20531;-76
2021/08/19 04:51:35;;;;;;;13.45;5.07;;;16.50;99.90;;;;;;5095826;28;20366;-77
2021/08/19 04:54:02;;;;;;;11.88;5.40;;;16.50;99.90;;;;;;5095763;28;20024;-77
2021/08/19 04:56:30;;;;;;;10.68;5.82;;;16.50;99.90;;;;;;5077629;28;20392;-77
2021/08/19 04:58:56;;;;;;;14.43;5.80;;;16.50;99.90;;;;;;5077629;28;20107;-77
2021/08/19 05:01:22;;;;;;;11.80;5.07;;;16.60;99.90;;;;;;5095826;28;20016;-77
2021/08/19 05:03:48;;;;;;;11.55;4.75;;;16.60;99.90;;;;;;5095073;28;20415;-76
2021/08/19 05:06:13;;;;;;;13.90;5.32;;;16.60;99.90;;;;;;5095991;28;20412;-79
2021/08/19 05:08:39;;;;;;;12.43;5.05;;;16.60;99.90;;;;;;5077069;28;20016;-77
2021/08/19 05:11:05;;;;;;;10.73;4.93;;;16.60;99.90;;;;;;5095205;28;20523;-77
2021/08/19 05:13:31;;;;;;;12.35;5.10;;;16.60;99.90;;;;;;5076926;28;20358;-77
2021/08/19 05:15:57;;;;;;;9.98;4.10;;;16.50;99.90;;;;;;5095250;28;20067;-77
2021/08/19 05:18:22;;;;;;;13.90;4.72;;;16.50;99.90;;;;;;5076872;28;20032;-76
2021/08/19 05:20:48;;;;;;;10.50;5.05;;;16.50;99.90;;;;;;5077270;28;20020;-78
2021/08/19 05:23:14;;;;;;;9.43;4.20;;;16.50;99.90;;;;;;5076783;28;20052;-79
2021/08/19 05:25:39;;;;;;;13.13;5.05;;;16.50;99.90;;;;;;5094817;28;20050;-76
2021/08/19 05:28:05;;;;;;;10.38;5.15;;;16.50;99.90;;;;;;5095140;28;20028;-78
2021/08/19 05:30:30;;;;;;;11.23;4.18;;;16.50;99.90;;;;;;5095483;28;20030;-76
2021/08/19 05:32:56;;;;;;;12.00;5.70;;;16.50;99.90;;;;;;5094506;28;20024;-76
2021/08/19 05:35:22;;;;;;;10.40;3.97;;;16.60;99.90;;;;;;5106494;22;20047;-75
2021/08/19 05:37:47;;;;;;;8.48;3.67;;;16.70;99.90;;;;;;5076562;28;20060;-77
2021/08/19 05:40:13;;;;;;;11.13;4.47;;;16.60;99.90;;;;;;5076281;28;20012;-77
2021/08/19 05:42:38;;;;;;;16.02;5.35;;;16.60;99.90;;;;;;5094135;28;20162;-76
2021/08/19 05:45:04;;;;;;;12.90;4.65;;;16.60;99.90;;;;;;5076284;28;20398;-77
2021/08/19 05:47:30;;;;;;;10.63;4.20;;;16.60;99.90;;;;;;5076251;28;20028;-76
2021/08/19 05:49:56;;;;;;;12.05;3.47;;;16.60;99.90;;;;;;5077307;28;20020;-75
2021/08/19 05:52:21;;;;;;;9.77;3.70;;;16.60;99.90;;;;;;5076081;28;20047;-75
2021/08/19 05:54:47;;;;;;;9.25;4.28;;;16.70;99.90;;;;;;5094434;28;20059;-74
2021/08/19 05:57:13;;;;;;;11.18;4.22;;;16.70;99.90;;;;;;5094425;28;20078;-77
2021/08/19 05:59:39;;;;;;;8.68;3.70;;;16.80;99.90;;;;;;5076175;28;20107;-77
2021/08/19 06:02:06;;;;;;;10.60;3.63;;;16.80;99.90;;;;;;5075863;28;20035;-74
2021/08/19 06:04:31;;;;;;;11.55;3.70;;;16.80;99.90;;;;;;5075923;28;20043;-77
2021/08/19 06:06:57;;;;;;;8.80;3.95;;;16.80;99.90;;;;;;5094060;28;20024;-77
2021/08/19 06:09:22;;;;;;;7.60;3.28;;;16.80;99.90;;;;;;5093965;28;20504;-76
2021/08/19 06:11:48;;;;;;;8.65;3.78;;;16.80;99.90;;;;;;5075648;28;20024;-76
2021/08/19 06:14:13;;;;;;;7.28;3.40;;;16.80;99.90;;;;;;5093772;28;20028;-74
2021/08/19 06:16:39;;;;;;;10.57;3.75;;;16.90;99.90;;;;;;5094070;28;20027;-74
2021/08/19 06:19:04;;;;;;;13.88;4.78;;;16.90;99.90;;;;;;5075920;28;20534;-77
2021/08/19 06:21:30;;;;;;;11.63;4.18;;;16.90;99.90;;;;;;5094369;28;20107;-75
2021/08/19 06:23:56;;;;;;;10.60;3.72;;;16.90;99.90;;;;;;5093741;28;20150;-74
2021/08/19 06:26:21;;;;;;;12.90;4.13;;;17.00;99.90;;;;;;5075949;28;20101;-76
2021/08/19 06:28:47;;;;;;;10.13;4.10;;;17.20;99.90;;;;;;5075552;28;20012;-75
2021/08/19 06:31:12;;;;;;;8.75;3.05;;;17.00;99.90;;;;;;5093877;28;20057;-79
2021/08/19 06:33:38;;;;;;;11.48;4.35;;;17.00;99.90;;;;;;5076130;28;20531;-76
2021/08/19 06:36:03;;;;;;;6.40;3.38;;;17.00;99.90;;;;;;5075568;28;20036;-76
2021/08/19 06:38:29;;;;;;;9.57;3.92;;;17.00;99.90;;;;;;5093497;28;20028;-75
2021/08/19 06:40:55;;;;;;;12.05;3.97;;;17.00;99.90;;;;;;5093581;28;20059;-75
2021/08/19 06:43:20;;;;;;;9.23;3.63;;;17.00;99.90;;;;;;5075144;28;20078;-74
2021/08/19 06:45:46;;;;;;;9.15;3.47;;;17.00;99.90;;;;;;5093670;28;20024;-74
2021/08/19 06:48:11;;;;;;;6.55;2.78;;;17.00;99.90;;;;;;5093614;28;20024;-75
2021/08/19 06:50:37;;;;;;;5.00;2.60;;;17.00;99.90;;;;;;5093270;28;20016;-75
2021/08/19 06:53:02;;;;;;;8.55;2.78;;;17.00;99.90;;;;;;5094314;28;20028;-77
2021/08/19 06:55:28;;;;;;;10.63;3.38;;;17.00;99.90;;;;;;5097664;28;20035;-77
2021/08/19 06:57:54;;;;;;;6.45;2.33;;;17.00;99.90;;;;;;5079371;28;20385;-77
2021/08/19 07:00:21;;;;;;;5.70;2.55;;;17.10;99.90;;;;;;5079628;28;20017;-77
2021/08/19 07:02:46;;;;;;;9.77;3.42;;;18.50;99.90;;;;;;5097374;28;20032;-76
2021/08/19 07:05:12;;;;;;;5.70;2.40;;;18.30;99.90;;;;;;5097340;28;20028;-76
2021/08/19 07:07:40;;;;;;;7.35;2.40;;;17.30;99.90;;;;;;5079149;28;20020;-77
2021/08/19 07:10:07;;;;;;;;;;;17.30;99.90;;;;;;5079738;28;20024;-77
2021/08/19 07:12:33;;;;;;;8.45;2.38;;;17.40;99.90;;;;;;5079474;28;19950;-74
2021/08/19 07:14:59;;;;;;;6.65;2.30;;;17.50;99.90;;;;;;5097244;28;20067;-74
2021/08/19 07:17:24;;;;;;;5.50;2.72;;;17.50;99.90;;;;;;5079222;28;20510;-77
2021/08/19 07:19:50;;;;;;;8.52;2.70;;;17.60;99.90;;;;;;5079010;28;20047;-74
2021/08/19 07:22:15;;;;;;;7.95;2.65;;;17.60;99.90;;;;;;5096918;28;20424;-75
2021/08/19 07:24:41;;;;;;;6.50;2.60;;;17.60;99.90;;;;;;5078943;28;20070;-75
2021/08/19 07:27:06;;;;;;;5.57;2.95;;;17.60;99.90;;;;;;5097215;28;20103;-77
2021/08/19 07:29:32;;;;;;;12.07;2.97;;;17.60;99.90;;;;;;5097553;28;20020;-78
2021/08/19 07:31:58;;;;;;;9.15;3.28;;;17.60;99.90;;;;;;5079619;28;20510;-79
2021/08/19 07:34:23;;;;;;;6.20;2.88;;;17.60;99.90;;;;;;5096875;28;20032;-77
2021/08/19 07:36:49;;;;;;;6.32;3.13;;;18.00;99.90;;;;;;5097396;28;20028;-76
2021/08/19 07:39:15;;;;;;;7.00;2.78;;;17.50;99.90;;;;;;5097265;28;20031;-79
2021/08/19 07:41:41;;;;;;;5.30;2.65;;;17.50;99.90;;;;;;5096549;28;20030;-76
2021/08/19 07:44:07;;;;;;;5.60;2.78;;;17.60;99.90;;;;;;5097252;28;20374;-75
2021/08/19 07:46:33;;;;;;;6.80;2.13;;;17.60;99.90;;;;;;5096732;28;20020;-75
2021/08/19 07:49:01;;;;;;;11.25;3.22;;;17.70;99.90;;;;;;5078322;28;20032;-75
2021/08/19 07:51:27;;;;;;;7.18;2.95;;;17.70;99.90;;;;;;5096431;28;20012;-75
2021/08/19 07:53:53;;;;;;;6.30;3.08;;;17.80;99.90;;;;;;5078050;28;20127;-75
2021/08/19 07:56:19;;;;;;;6.07;3.05;;;17.90;99.90;;;;;;5078107;28;20063;-75
2021/08/19 07:58:45;;;;;;;11.63;2.83;;;18.00;99.90;;;;;;5096301;28;20470;-75
2021/08/19 08:01:10;;;;;;;7.45;3.28;;;18.00;99.90;;;;;;5096712;28;20031;-75
2021/08/19 08:03:36;;;;;;;8.23;2.90;;;18.10;99.90;;;;;;5077860;28;20494;-75
2021/08/19 08:06:02;;;;;;;7.70;2.50;;;18.10;99.90;;;;;;5096126;28;20035;-75
2021/08/19 08:08:27;;;;;;;5.68;3.30;;;18.40;99.90;;;;;;5077980;28;20111;-75
2021/08/19 08:10:53;;;;;;;7.65;2.92;;;18.30;99.90;;;;;;5096630;28;20020;-75
2021/08/19 08:13:18;;;;;;;5.85;3.20;;;18.30;99.90;;;;;;5095955;28;20089;-75
2021/08/19 08:15:44;;;;;;;5.53;2.78;;;18.30;99.90;;;;;;5078166;28;20012;-75
2021/08/19 08:18:18;;;;;;;5.13;2.40;;;18.30;99.90;;;;;;5095953;28;20031;-75
2021/08/19 08:20:45;;;;;;;6.45;3.20;;;18.40;99.90;;;;;;5095757;28;20026;-75
2021/08/19 08:23:11;;;;;;;4.70;2.17;;;18.40;99.90;;;;;;5095866;28;20020;-76
2021/08/19 08:25:37;;;;;;;4.40;2.30;;;18.40;99.90;;;;;;5078371;28;20070;-75
2021/08/19 08:28:05;;;;;;;5.03;2.80;;;18.40;99.90;;;;;;5077852;28;20024;-77
2021/08/19 08:30:35;;;;;;;6.07;2.75;;;18.40;99.90;;;;;;5095971;28;20198;-75
2021/08/19 08:33:00;;;;;;;7.03;3.20;;;18.40;99.90;;;;;;5095655;28;20111;-76
2021/08/19 08:35:26;;;;;;;5.55;2.30;;;18.40;99.90;;;;;;5095599;28;20111;-76
2021/08/19 08:37:52;;;;;;;8.43;2.10;;;18.30;99.90;;;;;;5077745;28;20051;-76
2021/08/19 08:40:19;;;;;;;9.15;3.20;;;18.30;99.90;;;;;;5077307;28;20069;-76
2021/08/19 08:42:46;;;;;;;7.13;2.72;;;18.30;99.90;;;;;;5095549;28;20038;-76
2021/08/19 08:45:13;;;;;;;6.25;2.80;;;18.30;99.90;;;;;;5096084;28;20028;-75
2021/08/19 08:47:39;;;;;;;4.93;2.92;;;18.30;99.90;;;;;;5077387;28;20020;-76
2021/08/19 08:50:06;;;;;;;6.28;2.72;;;18.20;99.90;;;;;;5077195;28;20024;-74
2021/08/19 08:52:34;;;;;;;5.53;2.55;;;18.20;99.90;;;;;;5077081;28;20107;-74
2021/08/19 08:55:04;;;;;;;7.10;2.80;;;18.20;99.90;;;;;;5077646;28;20030;-74
2021/08/19 08:57:33;;;;;;;5.97;2.40;;;18.20;99.90;;;;;;5095180;28;20149;-75
2021/08/19 08:59:58;;;;;;;;;;;18.20;99.90;;;;;;5095585;28;20042;-76
2021/08/19 09:02:25;;;;;;;6.45;2.97;;;18.20;99.90;;;;;;5095198;28;20348;-77
2021/08/19 09:05:17;;;;;;;7.97;3.28;;;18.30;99.90;;;;;;5095151;28;20026;-77
2021/08/19 09:07:54;;;;;;;6.40;3.28;;;18.20;99.90;;;;;;5095695;28;20048;-77
2021/08/19 09:10:21;;;;;;;9.95;4.25;;;18.20;99.90;;;;;;5095651;28;20465;-75
2021/08/19 09:12:46;;;;;;;6.80;3.00;;;18.20;99.90;;;;;;5094955;28;20476;-77
2021/08/19 09:15:15;;;;;;;8.18;3.28;;;18.20;99.90;;;;;;5076446;28;20058;-75
2021/08/19 09:17:42;;;;;;;;;;;18.20;99.90;;;;;;5076882;28;20485;-77
2021/08/19 09:20:08;;;;;;;8.50;3.22;;;18.20;99.90;;;;;;5095381;28;20391;-75
2021/08/19 09:23:10;;;;;;;9.98;2.80;;;18.10;99.90;;;;;;5076484;28;20028;-77
2021/08/19 09:25:41;;;;;;;4.75;2.70;;;18.10;99.90;;;;;;5094638;28;20353;-76
2021/08/19 09:28:24;;;;;;;6.20;2.63;;;18.20;99.90;;;;;;5095199;28;20073;-76
2021/08/19 09:30:57;;;;;;;5.53;2.80;;;18.10;99.90;;;;;;5076345;28;20112;-77
2021/08/19 09:33:28;;;;;;;9.20;4.00;;;18.20;99.90;;;;;;5094372;28;20024;-76
2021/08/19 09:35:56;;;;;;;8.52;3.13;;;18.20;99.90;;;;;;5076154;28;20039;-77
2021/08/19 09:38:23;;;;;;;;;;;18.10;99.90;;;;;;5094960;28;20024;-78
2021/08/19 09:41:07;;;;;;;9.68;3.33;;;18.10;99.90;;;;;;5094787;28;19908;-77
2021/08/19 09:43:42;;;;;;;12.35;3.63;;;18.20;99.90;;;;;;5094796;28;20034;-76
2021/08/19 09:46:09;;;;;;;9.23;3.97;;;18.10;99.90;;;;;;5094485;28;20016;-77
2021/08/19 09:48:35;;;;;;;9.18;3.10;;;18.10;99.90;;;;;;5094083;28;20038;-76
2021/08/19 09:51:11;;;;;;;10.20;3.60;;;18.20;99.90;;;;;;5094179;28;20023;-76
2021/08/19 09:53:48;;;;;;;7.53;3.05;;;18.20;99.90;;;;;;5094039;28;20028;-76
2021/08/19 09:56:28;;;;;;;8.10;2.75;;;18.20;99.90;;;;;;5076033;28;20487;-78
2021/08/19 09:58:55;;;;;;;5.57;3.25;;;18.20;99.90;;;;;;5094621;28;20024;-76
2021/08/19 10:01:21;;;;;;;10.48;3.88;;;18.30;99.90;;;;;;5094004;28;20095;-76
2021/08/19 10:03:48;;;;;;;7.32;3.63;;;18.50;99.90;;;;;;5076312;28;20044;-75
2021/08/19 10:06:14;;;;;;;9.15;3.08;;;18.50;99.90;;;;;;5094036;28;20103;-78
2021/08/19 10:08:39;;;;;;;8.43;3.38;;;18.60;99.90;;;;;;5076814;28;20040;-79
2021/08/19 10:11:07;;;;;;;7.47;3.00;;;18.80;99.90;;;;;;5076378;28;20047;-78
2021/08/19 10:13:33;;;;;;;8.88;3.47;;;18.70;99.90;;;;;;5075832;28;20386;-77
2021/08/19 10:16:00;;;;;;;6.07;3.38;;;18.70;99.90;;;;;;5129950;22;20055;-77
2021/08/19 10:18:28;;;;;;;7.03;3.35;;;18.70;99.90;;;;;;5076136;28;20016;-77
2021/08/19 10:21:00;;;;;;;;;;;18.60;99.90;;;;;;5094980;28;20016;-78
2021/08/19 10:23:27;;;;;;;5.50;2.72;;;18.60;99.90;;;;;;5094200;28;19908;-77
2021/08/19 10:26:25;;;;;;;7.28;2.85;;;18.60;99.90;;;;;;5094722;28;20048;-80
2021/08/19 10:28:52;;;;;;;7.88;2.90;;;18.60;99.90;;;;;;5032887;28;20036;-77
2021/08/19 10:31:38;;;;;;;7.35;3.45;;;18.60;99.90;;;;;;5075717;28;20492;-77
2021/08/19 10:34:04;;;;;;;6.72;2.63;;;18.60;99.90;;;;;;5075987;28;20020;-78
2021/08/19 10:36:29;;;;;;;6.65;2.50;;;18.60;99.90;;;;;;5075791;28;20064;-75
2021/08/19 10:39:20;;;;;;;4.18;2.28;;;18.60;99.90;;;;;;5087050;22;20084;-80
2021/08/19 10:41:46;;;;;;;7.10;2.85;;;18.60;99.90;;;;;;5093866;28;20059;-77
2021/08/19 10:44:13;;;;;;;6.63;2.72;;;18.60;99.90;;;;;;5093879;28;20028;-78
2021/08/19 10:49:29;;;;;;;7.50;3.80;;;18.60;99.90;;;;;;5091759;28;20040;-77
2021/08/19 10:51:55;;;;;;;6.95;3.22;;;18.50;99.90;;;;;;5094233;28;20072;-77
2021/08/19 10:54:39;;;;;;;7.35;3.10;;;18.50;99.90;;;;;;5093875;28;20477;-77
2021/08/19 10:57:32;;;;;;;6.63;3.05;;;18.40;99.90;;;;;;5075589;28;20486;-78
2021/08/19 11:00:10;;;;;;;5.60;2.60;;;18.40;99.90;;;;;;5087489;22;20119;-77
2021/08/19 11:02:39;;;;;;;9.45;3.72;;;18.40;99.90;;;;;;5075201;28;20509;-76
2021/08/19 11:05:13;;;;;;;6.75;3.28;;;18.40;99.90;;;;;;5093722;28;20013;-77
2021/08/19 11:07:55;;;;;;;5.32;2.25;;;18.50;99.90;;;;;;5075278;28;20115;-75
2021/08/19 11:10:28;;;;;;;6.15;3.53;;;18.60;99.90;;;;;;5093381;28;20035;-76
2021/08/19 11:13:09;;;;;;;5.75;3.45;;;18.70;99.90;;;;;;5093180;28;20082;-77
2021/08/19 11:15:45;;;;;;;9.52;3.50;;;18.80;99.90;;;;;;5105563;22;20052;-76
2021/08/19 11:18:22;;;;;;;7.57;3.55;;;18.90;99.90;;;;;;5093093;28;20107;-75
2021/08/19 11:20:48;;;;;;;7.63;3.42;;;19.10;99.90;;;;;;5074992;28;20020;-75
2021/08/19 11:23:13;;;;;;;6.50;2.60;;;19.20;99.90;;;;;;5074804;28;20046;-77
2021/08/19 11:25:42;;;;;;;6.65;3.20;;;19.50;99.90;;;;;;5075701;28;20070;-77
2021/08/19 11:28:16;;;;;;;5.32;3.20;;;19.60;99.90;;;;;;5092967;28;20094;-76
2021/08/19 11:30:45;;;;;;;8.82;2.75;;;19.50;99.90;;;;;;5094291;28;20028;-80
2021/08/19 11:33:19;;;;;;;9.55;3.40;;;19.50;99.90;;;;;;5076080;28;20016;-76
2021/08/19 11:35:47;;;;;;;6.00;2.97;;;19.40;99.90;;;;;;5075059;28;20069;-77
2021/08/19 11:38:15;;;;;;;6.05;2.55;;;19.30;99.90;;;;;;5075439;28;20486;-79
2021/08/19 11:40:43;;;;;;;6.18;3.33;;;19.20;99.90;;;;;;5079646;28;20497;-77
2021/08/19 11:43:28;;;;;;;7.40;3.95;;;19.10;99.90;;;;;;5096882;28;20028;-76
2021/08/19 11:46:05;;;;;;;10.93;4.43;;;19.10;99.90;;;;;;5079861;28;20020;-77
2021/08/19 11:48:31;;;;;;;7.63;4.25;;;19.00;99.90;;;;;;5097526;28;20021;-77
2021/08/19 11:50:59;;;;;;;8.80;3.28;;;18.90;99.90;;;;;;5097538;28;20073;-79
2021/08/19 11:53:24;;;;;;;7.55;4.18;;;18.80;99.90;;;;;;5079955;28;20063;-80
2021/08/19 11:55:51;;;;;;;6.70;3.65;;;18.50;99.90;;;;;;5079436;28;20047;-80
2021/08/19 11:58:17;;;;;;;8.23;3.83;;;18.60;99.90;;;;;;5078300;28;20042;-76
2021/08/19 12:01:07;;;;;;;5.25;3.22;;;19.20;99.90;;;;;;5097087;28;20024;-79
2021/08/19 12:03:34;;;;;;;6.88;3.05;;;18.70;99.90;;;;;;5078559;28;20083;-76
2021/08/19 12:06:03;;;;;;;6.03;3.25;;;18.60;99.90;;;;;;5096249;28;20047;-76
2021/08/19 12:08:30;;;;;;;6.32;2.92;;;18.60;99.90;;;;;;5096590;28;20023;-77
2021/08/19 12:10:58;;;;;;;5.65;2.85;;;18.60;99.90;;;;;;5096607;28;20024;-77
2021/08/19 12:13:24;;;;;;;6.05;3.13;;;18.60;99.90;;;;;;5078332;28;20028;-80
2021/08/19 12:15:50;;;;;;;6.47;3.22;;;18.50;99.90;;;;;;5078519;28;20173;-78
2021/08/19 12:18:23;;;;;;;4.78;2.75;;;18.50;99.90;;;;;;5078607;28;20024;-78
2021/08/19 12:20:50;;;;;;;4.10;2.38;;;18.40;99.90;;;;;;5078407;28;20489;-78
2021/08/19 12:23:16;;;;;;;5.15;2.38;;;18.30;99.90;;;;;;5095856;28;20020;-77
2021/08/19 12:25:41;;;;;;;4.10;2.35;;;18.30;99.90;;;;;;5096249;28;20091;-77
2021/08/19 12:28:09;;;;;;;3.47;1.77;;;18.30;99.90;;;;;;5095864;28;20023;-77
2021/08/19 12:30:35;;;;;;;3.40;1.50;;;18.40;99.90;;;;;;5077697;28;20082;-77
2021/08/19 12:33:03;;;;;;;2.58;1.50;;;18.30;99.90;;;;;;5077849;28;20028;-78
2021/08/19 12:35:28;;;;;;;2.70;0.93;;;18.20;99.90;;;;;;5077724;28;20111;-76
2021/08/19 12:37:57;;;;;;;2.67;1.63;;;18.20;99.90;;;;;;5095743;28;20058;-78
2021/08/19 12:40:31;;;;;;;3.20;1.85;;;18.20;99.90;;;;;;5096361;28;20542;-78
2021/08/19 12:43:10;;;;;;;18.67;2.28;;;18.20;99.90;;;;;;5077786;28;20062;-76
2021/08/19 12:45:37;;;;;;;2.95;1.15;;;18.30;99.90;;;;;;5095645;28;20031;-78
2021/08/19 12:48:07;;;;;;;3.55;1.08;;;18.50;99.90;;;;;;5096366;28;20048;-78
2021/08/19 12:50:34;;;;;;;2.22;1.55;;;18.60;99.90;;;;;;5076832;28;20055;-80